createdAt,value
2019-01-26T00:00:36.785Z,0
2019-01-26T00:01:37.745Z,0
2019-01-26T00:02:38.830Z,0
2019-01-26T00:03:39.518Z,0
2019-01-26T00:04:40.200Z,0
2019-01-26T00:05:40.611Z,0
2019-01-26T00:06:41.293Z,0
2019-01-26T00:07:41.697Z,0
2019-01-26T00:08:43.100Z,0
2019-01-26T00:09:44.419Z,0
2019-01-26T00:10:44.825Z,0
2019-01-26T00:11:44.960Z,0
2019-01-26T00:12:45.509Z,0
2019-01-26T00:13:46.639Z,0
2019-01-26T00:14:47.765Z,0
2019-01-26T00:15:48.830Z,0
2019-01-26T00:16:49.546Z,0
2019-01-26T00:17:50.228Z,0
2019-01-26T00:18:50.637Z,0
2019-01-26T00:19:51.324Z,0
2019-01-26T00:20:52.010Z,0
2019-01-26T00:21:53.133Z,0
2019-01-26T00:22:53.944Z,0
2019-01-26T00:23:54.626Z,0
2019-01-26T00:24:54.750Z,0
2019-01-26T00:25:56.440Z,0
2019-01-26T00:26:56.846Z,0
2019-01-26T00:27:57.256Z,0
2019-01-26T00:28:58.662Z,0
2019-01-26T00:29:59.066Z,0
2019-01-26T00:30:59.472Z,0
2019-01-26T00:31:59.882Z,0
2019-01-26T00:33:00.415Z,0
2019-01-26T00:34:01.116Z,0
2019-01-26T00:35:01.523Z,0
2019-01-26T00:36:02.207Z,0
2019-01-26T00:37:02.610Z,0
2019-01-26T00:38:03.768Z,0
2019-01-26T00:39:05.172Z,0
2019-01-26T00:40:06.315Z,0
2019-01-26T00:41:06.719Z,0
2019-01-26T00:42:08.125Z,0
2019-01-26T00:43:09.236Z,0
2019-01-26T00:44:10.363Z,0
2019-01-26T00:45:10.778Z,0
2019-01-26T00:46:12.569Z,0
2019-01-26T00:47:12.972Z,0
2019-01-26T00:48:14.377Z,0
2019-01-26T00:49:14.341Z,0
2019-01-26T00:50:15.773Z,0
2019-01-26T00:51:18.905Z,0
2019-01-26T00:52:20.588Z,0
2019-01-26T00:53:21.123Z,0
2019-01-26T00:54:23.082Z,0
2019-01-26T00:55:23.245Z,0
2019-01-26T00:56:24.230Z,0
2019-01-26T00:57:24.916Z,0
2019-01-26T00:58:25.893Z,0
2019-01-26T00:59:28.283Z,0
2019-01-26T01:00:27.689Z,0
2019-01-26T01:01:28.096Z,0
2019-01-26T01:02:28.780Z,0
2019-01-26T01:03:29.732Z,0
2019-01-26T01:04:30.685Z,0
2019-01-26T01:05:31.120Z,0
2019-01-26T01:06:32.088Z,0
2019-01-26T01:07:32.601Z,0
2019-01-26T01:08:33.290Z,0
2019-01-26T01:09:33.728Z,0
2019-01-26T01:10:34.495Z,0
2019-01-26T01:11:34.455Z,0
2019-01-26T01:12:34.862Z,0
2019-01-26T01:13:35.671Z,0
2019-01-26T01:14:36.081Z,0
2019-01-26T01:15:36.763Z,0
2019-01-26T01:16:37.506Z,0
2019-01-26T01:17:38.914Z,0
2019-01-26T01:18:40.155Z,0
2019-01-26T01:19:41.114Z,0
2019-01-26T01:20:41.552Z,0
2019-01-26T01:21:42.845Z,0
2019-01-26T01:22:43.642Z,0
2019-01-26T01:23:45.210Z,0
2019-01-26T01:24:45.463Z,0
2019-01-26T01:25:47.145Z,0
2019-01-26T01:26:47.591Z,0
2019-01-26T01:27:48.275Z,0
2019-01-26T01:28:48.399Z,0
2019-01-26T01:29:49.358Z,0
2019-01-26T01:30:50.319Z,0
2019-01-26T01:31:50.726Z,0
2019-01-26T01:32:50.853Z,0
2019-01-26T01:33:51.941Z,0
2019-01-26T01:34:53.981Z,0
2019-01-26T01:35:52.897Z,0
2019-01-26T01:36:54.303Z,0
2019-01-26T01:37:54.709Z,0
2019-01-26T01:38:55.835Z,0
2019-01-26T01:39:56.244Z,0
2019-01-26T01:40:56.928Z,0
2019-01-26T01:41:58.328Z,0
2019-01-26T01:42:59.012Z,0
2019-01-26T01:43:58.827Z,0
2019-01-26T01:44:59.955Z,0
2019-01-26T01:46:01.216Z,0
2019-01-26T01:47:00.899Z,0
2019-01-26T01:48:02.136Z,0
2019-01-26T01:49:02.551Z,0
2019-01-26T01:50:03.511Z,0
2019-01-26T01:51:04.751Z,0
2019-01-26T01:52:05.154Z,0
2019-01-26T01:53:05.293Z,0
2019-01-26T01:54:06.106Z,0
2019-01-26T01:55:07.511Z,0
2019-01-26T01:56:08.471Z,0
2019-01-26T01:57:08.878Z,0
2019-01-26T01:58:09.287Z,0
2019-01-26T01:59:10.243Z,0
2019-01-26T02:00:10.659Z,0
2019-01-26T02:01:11.618Z,0
2019-01-26T02:02:12.025Z,0
2019-01-26T02:03:12.984Z,0
2019-01-26T02:04:13.798Z,0
2019-01-26T02:05:14.489Z,0
2019-01-26T02:06:14.904Z,0
2019-01-26T02:07:16.031Z,0
2019-01-26T02:08:17.732Z,0
2019-01-26T02:09:18.413Z,0
2019-01-26T02:10:19.102Z,0
2019-01-26T02:11:19.502Z,0
2019-01-26T02:12:20.920Z,0
2019-01-26T02:13:21.881Z,0
2019-01-26T02:14:22.692Z,0
2019-01-26T02:15:23.372Z,0
2019-01-26T02:16:23.499Z,0
2019-01-26T02:17:23.900Z,0
2019-01-26T02:18:24.860Z,0
2019-01-26T02:19:24.985Z,0
2019-01-26T02:20:25.677Z,0
2019-01-26T02:21:26.916Z,0
2019-01-26T02:22:27.609Z,0
2019-01-26T02:23:28.847Z,0
2019-01-26T02:24:28.664Z,0
2019-01-26T02:25:30.069Z,0
2019-01-26T02:26:30.201Z,0
2019-01-26T02:27:31.640Z,0
2019-01-26T02:28:32.045Z,0
2019-01-26T02:29:32.726Z,0
2019-01-26T02:30:34.407Z,0
2019-01-26T02:31:35.388Z,0
2019-01-26T02:32:36.635Z,0
2019-01-26T02:33:37.319Z,0
2019-01-26T02:34:37.977Z,0
2019-01-26T02:35:38.472Z,0
2019-01-26T02:36:38.912Z,0
2019-01-26T02:37:40.602Z,0
2019-01-26T02:38:40.843Z,0
2019-01-26T02:39:41.527Z,0
2019-01-26T02:40:43.241Z,0
2019-01-26T02:41:42.927Z,0
2019-01-26T02:42:44.346Z,0
2019-01-26T02:43:44.749Z,0
2019-01-26T02:44:45.704Z,0
2019-01-26T02:45:46.444Z,0
2019-01-26T02:46:46.866Z,0
2019-01-26T02:47:48.105Z,0
2019-01-26T02:48:49.340Z,0
2019-01-26T02:49:49.860Z,0
2019-01-26T02:50:49.824Z,0
2019-01-26T02:51:50.815Z,0
2019-01-26T02:52:50.505Z,0
2019-01-26T02:53:51.645Z,0
2019-01-26T02:54:53.295Z,0
2019-01-26T02:55:52.992Z,0
2019-01-26T02:56:54.407Z,0
2019-01-26T02:57:55.368Z,0
2019-01-26T02:58:55.539Z,0
2019-01-26T02:59:56.512Z,0
2019-01-26T03:00:56.758Z,0
2019-01-26T03:01:57.449Z,0
2019-01-26T03:02:58.418Z,0
2019-01-26T03:03:59.117Z,0
2019-01-26T03:05:00.056Z,0
2019-01-26T03:06:00.852Z,0
2019-01-26T03:07:01.265Z,0
2019-01-26T03:08:02.499Z,0
2019-01-26T03:09:03.030Z,0
2019-01-26T03:10:03.552Z,0
2019-01-26T03:11:02.959Z,0
2019-01-26T03:12:03.379Z,0
2019-01-26T03:13:05.190Z,0
2019-01-26T03:14:04.889Z,0
2019-01-26T03:15:04.828Z,0
2019-01-26T03:16:05.525Z,0
2019-01-26T03:17:08.001Z,0
2019-01-26T03:18:08.407Z,0
2019-01-26T03:19:08.832Z,0
2019-01-26T03:20:09.246Z,0
2019-01-26T03:21:09.388Z,0
2019-01-26T03:22:09.792Z,0
2019-01-26T03:23:10.778Z,0
2019-01-26T03:24:11.462Z,0
2019-01-26T03:25:12.181Z,0
2019-01-26T03:26:13.143Z,0
2019-01-26T03:27:14.379Z,0
2019-01-26T03:28:13.791Z,0
2019-01-26T03:29:14.478Z,0
2019-01-26T03:30:15.734Z,0
2019-01-26T03:31:16.869Z,0
2019-01-26T03:32:18.005Z,0
2019-01-26T03:33:18.554Z,0
2019-01-26T03:34:19.080Z,0
2019-01-26T03:35:20.010Z,0
2019-01-26T03:36:20.711Z,0
2019-01-26T03:37:21.401Z,0
2019-01-26T03:38:21.803Z,0
2019-01-26T03:39:22.493Z,0
2019-01-26T03:40:24.008Z,0
2019-01-26T03:41:24.251Z,0
2019-01-26T03:42:24.935Z,0
2019-01-26T03:43:26.185Z,0
2019-01-26T03:44:26.627Z,0
2019-01-26T03:45:28.018Z,0
2019-01-26T03:46:29.535Z,0
2019-01-26T03:47:29.496Z,0
2019-01-26T03:48:30.756Z,0
2019-01-26T03:49:31.001Z,0
2019-01-26T03:50:32.240Z,0
2019-01-26T03:51:32.925Z,0
2019-01-26T03:52:33.610Z,0
2019-01-26T03:53:34.575Z,0
2019-01-26T03:54:35.259Z,0
2019-01-26T03:55:36.391Z,0
2019-01-26T03:56:37.389Z,0
2019-01-26T03:57:38.081Z,0
2019-01-26T03:58:38.774Z,0
2019-01-26T03:59:39.461Z,0
2019-01-26T04:00:40.422Z,0
2019-01-26T04:01:41.390Z,0
2019-01-26T04:02:42.077Z,0
2019-01-26T04:03:43.062Z,0
2019-01-26T04:04:43.796Z,0
2019-01-26T04:05:44.335Z,0
2019-01-26T04:06:45.296Z,0
2019-01-26T04:07:46.256Z,0
2019-01-26T04:08:46.675Z,0
2019-01-26T04:09:48.085Z,0
2019-01-26T04:10:48.333Z,0
2019-01-26T04:11:49.062Z,0
2019-01-26T04:12:49.769Z,0
2019-01-26T04:13:51.012Z,0
2019-01-26T04:14:51.421Z,0
2019-01-26T04:15:52.255Z,0
2019-01-26T04:16:52.669Z,0
2019-01-26T04:17:53.350Z,0
2019-01-26T04:18:54.767Z,0
2019-01-26T04:19:55.189Z,0
2019-01-26T04:20:56.153Z,0
2019-01-26T04:21:56.562Z,0
2019-01-26T04:22:57.523Z,0
2019-01-26T04:23:58.067Z,0
2019-01-26T04:24:58.201Z,0
2019-01-26T04:25:58.867Z,0
2019-01-26T04:27:00.117Z,0
2019-01-26T04:28:00.083Z,0
2019-01-26T04:29:01.615Z,0
2019-01-26T04:30:02.154Z,0
2019-01-26T04:31:01.566Z,0
2019-01-26T04:32:02.252Z,0
2019-01-26T04:33:04.045Z,0
2019-01-26T04:34:05.578Z,0
2019-01-26T04:35:05.581Z,0
2019-01-26T04:36:08.241Z,0
2019-01-26T04:37:07.952Z,0
2019-01-26T04:38:09.929Z,0
2019-01-26T04:39:10.620Z,0
2019-01-26T04:40:11.588Z,0
2019-01-26T04:41:12.278Z,0
2019-01-26T04:42:13.263Z,0
2019-01-26T04:43:13.503Z,0
2019-01-26T04:44:14.190Z,0
2019-01-26T04:45:14.169Z,0
2019-01-26T04:46:14.984Z,0
2019-01-26T04:47:15.114Z,0
2019-01-26T04:48:16.357Z,0
2019-01-26T04:49:17.342Z,0
2019-01-26T04:50:17.478Z,0
2019-01-26T04:51:18.162Z,0
2019-01-26T04:52:20.130Z,0
2019-01-26T04:53:20.822Z,0
2019-01-26T04:54:21.805Z,0
2019-01-26T04:55:21.972Z,0
2019-01-26T04:56:23.383Z,0
2019-01-26T04:57:23.789Z,0
2019-01-26T04:58:24.956Z,0
2019-01-26T04:59:25.953Z,0
2019-01-26T05:00:27.194Z,0
2019-01-26T05:01:27.604Z,0
2019-01-26T05:02:29.575Z,0
2019-01-26T05:03:30.310Z,0
2019-01-26T05:04:31.038Z,0
2019-01-26T05:05:31.720Z,0
2019-01-26T05:06:32.547Z,0
2019-01-26T05:07:33.964Z,0
2019-01-26T05:08:34.480Z,0
2019-01-26T05:09:35.203Z,0
2019-01-26T05:10:35.888Z,0
2019-01-26T05:11:37.410Z,0
2019-01-26T05:12:37.930Z,0
2019-01-26T05:13:37.919Z,0
2019-01-26T05:14:38.331Z,0
2019-01-26T05:15:39.749Z,0
2019-01-26T05:16:40.559Z,0
2019-01-26T05:17:41.962Z,0
2019-01-26T05:18:42.928Z,0
2019-01-26T05:19:42.898Z,0
2019-01-26T05:20:44.312Z,0
2019-01-26T05:21:45.000Z,0
2019-01-26T05:22:45.134Z,0
2019-01-26T05:23:46.647Z,0
2019-01-26T05:24:47.336Z,0
2019-01-26T05:25:48.579Z,0
2019-01-26T05:26:49.240Z,0
2019-01-26T05:27:50.503Z,0
2019-01-26T05:28:50.746Z,0
2019-01-26T05:29:51.153Z,0
2019-01-26T05:30:51.835Z,0
2019-01-26T05:31:52.801Z,0
2019-01-26T05:32:53.483Z,0
2019-01-26T05:33:54.996Z,0
2019-01-26T05:34:55.685Z,0
2019-01-26T05:35:56.090Z,0
2019-01-26T05:36:57.076Z,0
2019-01-26T05:37:58.041Z,0
2019-01-26T05:38:57.998Z,0
2019-01-26T05:39:58.126Z,0
2019-01-26T05:40:59.529Z,0
2019-01-26T05:42:00.792Z,0
2019-01-26T05:43:00.474Z,0
2019-01-26T05:44:01.168Z,0
2019-01-26T05:45:01.868Z,0
2019-01-26T05:46:02.286Z,0
2019-01-26T05:47:03.384Z,0
2019-01-26T05:48:04.351Z,0
2019-01-26T05:49:04.759Z,0
2019-01-26T05:50:05.173Z,0
2019-01-26T05:51:06.180Z,0
2019-01-26T05:52:06.868Z,0
2019-01-26T05:53:08.120Z,0
2019-01-26T05:54:08.531Z,0
2019-01-26T05:55:09.259Z,0
2019-01-26T05:56:10.218Z,0
2019-01-26T05:57:10.874Z,0
2019-01-26T05:58:11.836Z,0
2019-01-26T05:59:12.099Z,0
2019-01-26T06:00:12.783Z,0
2019-01-26T06:01:13.186Z,0
2019-01-26T06:02:14.592Z,0
2019-01-26T06:03:15.315Z,0
2019-01-26T06:04:16.277Z,0
2019-01-26T06:05:16.683Z,0
2019-01-26T06:06:18.377Z,0
2019-01-26T06:07:18.756Z,0
2019-01-26T06:08:18.884Z,0
2019-01-26T06:09:19.290Z,0
2019-01-26T06:10:20.973Z,0
2019-01-26T06:11:21.235Z,0
2019-01-26T06:12:21.922Z,0
2019-01-26T06:13:21.902Z,0
2019-01-26T06:14:22.863Z,0
2019-01-26T06:15:23.831Z,0
2019-01-26T06:16:24.237Z,0
2019-01-26T06:17:25.603Z,0
2019-01-26T06:18:26.287Z,0
2019-01-26T06:19:26.975Z,0
2019-01-26T06:20:27.380Z,0
2019-01-26T06:21:28.826Z,0
2019-01-26T06:22:29.234Z,0
2019-01-26T06:23:29.918Z,0
2019-01-26T06:24:30.324Z,0
2019-01-26T06:25:31.040Z,4
2019-01-26T06:26:31.330Z,4
2019-01-26T06:27:31.414Z,4
2019-01-26T06:28:31.542Z,0
2019-01-26T06:29:32.703Z,4
2019-01-26T06:30:34.107Z,4
2019-01-26T06:31:34.813Z,8
2019-01-26T06:32:35.501Z,4
2019-01-26T06:33:36.204Z,8
2019-01-26T06:34:37.727Z,8
2019-01-26T06:35:38.021Z,8
2019-01-26T06:36:37.752Z,8
2019-01-26T06:37:37.898Z,12
2019-01-26T06:38:39.144Z,12
2019-01-26T06:39:40.120Z,16
2019-01-26T06:40:40.530Z,16
2019-01-26T06:41:42.038Z,20
2019-01-26T06:42:42.722Z,24
2019-01-26T06:43:43.410Z,28
2019-01-26T06:44:43.820Z,32
2019-01-26T06:45:44.225Z,32
2019-01-26T06:46:45.187Z,36
2019-01-26T06:47:46.000Z,40
2019-01-26T06:48:46.128Z,44
2019-01-26T06:49:46.809Z,52
2019-01-26T06:50:47.216Z,56
2019-01-26T06:51:47.350Z,64
2019-01-26T06:52:48.039Z,76
2019-01-26T06:53:49.013Z,92
2019-01-26T06:54:49.695Z,100
2019-01-26T06:55:50.672Z,116
2019-01-26T06:56:51.678Z,124
2019-01-26T06:57:52.361Z,136
2019-01-26T06:58:53.331Z,148
2019-01-26T06:59:53.574Z,156
2019-01-26T07:00:53.703Z,164
2019-01-26T07:01:54.399Z,168
2019-01-26T07:02:55.079Z,172
2019-01-26T07:03:55.765Z,172
2019-01-26T07:04:56.448Z,180
2019-01-26T07:05:57.136Z,192
2019-01-26T07:06:58.100Z,204
2019-01-26T07:07:58.788Z,216
2019-01-26T07:08:58.921Z,232
2019-01-26T07:09:59.325Z,240
2019-01-26T07:11:02.124Z,252
2019-01-26T07:12:00.605Z,264
2019-01-26T07:13:01.013Z,272
2019-01-26T07:14:01.702Z,276
2019-01-26T07:15:03.112Z,288
2019-01-26T07:16:04.079Z,296
2019-01-26T07:17:04.491Z,320
2019-01-26T07:18:11.572Z,348
2019-01-26T07:18:17.608Z,348
2019-01-26T07:19:18.165Z,388
2019-01-26T07:20:19.332Z,420
2019-01-26T07:21:20.464Z,440
2019-01-26T07:22:20.906Z,460
2019-01-26T07:23:21.873Z,464
2019-01-26T07:24:22.287Z,480
2019-01-26T07:25:23.250Z,496
2019-01-26T07:26:23.940Z,512
2019-01-26T07:27:24.350Z,520
2019-01-26T07:28:25.481Z,536
2019-01-26T07:29:27.143Z,560
2019-01-26T07:30:27.831Z,584
2019-01-26T07:31:28.518Z,604
2019-01-26T07:32:28.932Z,620
2019-01-26T07:33:30.184Z,652
2019-01-26T07:34:30.591Z,676
2019-01-26T07:35:31.723Z,700
2019-01-26T07:36:33.130Z,728
2019-01-26T07:37:34.375Z,752
2019-01-26T07:38:34.513Z,756
2019-01-26T07:39:35.906Z,756
2019-01-26T07:40:37.147Z,740
2019-01-26T07:41:37.833Z,744
2019-01-26T07:42:39.091Z,764
2019-01-26T07:43:38.503Z,772
2019-01-26T07:44:39.919Z,784
2019-01-26T07:45:40.636Z,820
2019-01-26T07:46:41.319Z,848
2019-01-26T07:47:42.012Z,908
2019-01-26T07:48:42.696Z,956
2019-01-26T07:49:43.257Z,992
2019-01-26T07:50:43.953Z,1020
2019-01-26T07:51:44.360Z,1040
2019-01-26T07:52:45.326Z,1048
2019-01-26T07:53:48.044Z,1052
2019-01-26T07:54:46.733Z,1076
2019-01-26T07:55:46.865Z,1116
2019-01-26T07:56:48.562Z,1152
2019-01-26T07:57:48.972Z,1176
2019-01-26T07:58:50.386Z,1168
2019-01-26T07:59:51.491Z,1188
2019-01-26T08:00:52.476Z,1244
2019-01-26T08:01:53.165Z,1300
2019-01-26T08:02:54.179Z,1320
2019-01-26T08:03:54.588Z,1348
2019-01-26T08:04:55.718Z,1376
2019-01-26T08:05:57.166Z,1384
2019-01-26T08:06:58.140Z,1400
2019-01-26T08:07:58.550Z,1424
2019-01-26T08:08:59.969Z,1460
2019-01-26T08:10:01.240Z,1488
2019-01-26T08:11:01.659Z,1488
2019-01-26T08:12:02.624Z,1484
2019-01-26T08:13:03.142Z,1560
2019-01-26T08:14:02.830Z,1616
2019-01-26T08:15:03.245Z,1680
2019-01-26T08:16:04.656Z,1728
2019-01-26T08:17:05.348Z,1768
2019-01-26T08:18:06.312Z,1788
2019-01-26T08:19:06.447Z,1824
2019-01-26T08:20:07.838Z,1856
2019-01-26T08:21:08.290Z,1880
2019-01-26T08:22:09.426Z,1884
2019-01-26T08:23:10.559Z,1852
2019-01-26T08:24:11.556Z,1812
2019-01-26T08:25:12.244Z,1808
2019-01-26T08:26:12.941Z,1812
2019-01-26T08:27:13.071Z,1848
2019-01-26T08:28:14.319Z,1876
2019-01-26T08:29:14.730Z,1852
2019-01-26T08:30:14.990Z,1800
2019-01-26T08:31:16.124Z,1744
2019-01-26T08:32:17.257Z,1712
2019-01-26T08:33:17.679Z,1724
2019-01-26T08:34:18.811Z,1756
2019-01-26T08:35:20.224Z,1800
2019-01-26T08:36:20.634Z,1900
2019-01-26T08:37:21.323Z,2004
2019-01-26T08:38:22.862Z,2108
2019-01-26T08:39:22.992Z,2252
2019-01-26T08:40:23.851Z,2428
2019-01-26T08:41:24.265Z,2556
2019-01-26T08:42:25.231Z,2656
2019-01-26T08:43:26.197Z,2688
2019-01-26T08:44:26.885Z,2648
2019-01-26T08:45:27.018Z,2584
2019-01-26T08:46:27.704Z,2572
2019-01-26T08:47:28.395Z,2584
2019-01-26T08:48:32.751Z,2640
2019-01-26T08:49:33.886Z,2740
2019-01-26T08:50:35.287Z,2832
2019-01-26T08:51:35.975Z,2836
2019-01-26T08:52:35.943Z,2848
2019-01-26T08:53:37.361Z,2876
2019-01-26T08:54:37.773Z,2908
2019-01-26T08:55:37.907Z,2944
2019-01-26T08:56:39.317Z,2944
2019-01-26T08:57:41.007Z,2920
2019-01-26T08:58:41.419Z,2872
2019-01-26T08:59:41.551Z,2828
2019-01-26T09:00:42.250Z,2776
2019-01-26T09:01:42.945Z,2784
2019-01-26T09:02:44.191Z,2844
2019-01-26T09:03:44.330Z,2888
2019-01-26T09:04:45.016Z,3020
2019-01-26T09:05:45.431Z,3096
2019-01-26T09:06:46.679Z,3072
2019-01-26T09:07:47.370Z,3044
2019-01-26T09:08:47.058Z,3036
2019-01-26T09:09:47.471Z,3036
2019-01-26T09:10:48.007Z,3016
2019-01-26T09:11:48.698Z,3036
2019-01-26T09:12:49.107Z,3048
2019-01-26T09:13:49.251Z,3024
2019-01-26T09:14:49.658Z,3004
2019-01-26T09:15:50.652Z,3012
2019-01-26T09:16:50.787Z,2988
2019-01-26T09:17:51.922Z,2968
2019-01-26T09:18:52.896Z,3000
2019-01-26T09:19:53.578Z,3080
2019-01-26T09:20:54.962Z,3164
2019-01-26T09:21:55.409Z,3252
2019-01-26T09:22:56.376Z,3404
2019-01-26T09:23:57.357Z,3572
2019-01-26T09:24:57.777Z,3652
2019-01-26T09:25:58.911Z,3700
2019-01-26T09:27:00.050Z,3720
2019-01-26T09:28:01.295Z,3728
2019-01-26T09:29:01.988Z,3704
2019-01-26T09:30:08.557Z,3696
2019-01-26T09:30:15.762Z,3692
2019-01-26T09:31:15.725Z,3644
2019-01-26T09:32:16.860Z,3524
2019-01-26T09:33:17.320Z,3368
2019-01-26T09:34:18.006Z,3268
2019-01-26T09:35:18.694Z,3244
2019-01-26T09:36:19.127Z,3224
2019-01-26T09:37:19.561Z,3156
2019-01-26T09:38:20.256Z,3076
2019-01-26T09:39:21.514Z,3080
2019-01-26T09:40:22.208Z,3092
2019-01-26T09:41:22.324Z,3108
2019-01-26T09:42:23.739Z,3088
2019-01-26T09:43:29.656Z,3072
2019-01-26T09:43:40.683Z,3072
2019-01-26T09:43:53.258Z,3076
2019-01-26T09:44:04.656Z,3076
2019-01-26T09:44:17.243Z,3084
2019-01-26T09:44:29.516Z,3096
2019-01-26T09:44:41.198Z,3108
2019-01-26T09:44:54.138Z,3120
2019-01-26T09:45:05.403Z,3136
2019-01-26T09:46:02.417Z,3224
2019-01-26T09:47:02.832Z,3316
2019-01-26T09:48:03.529Z,3432
2019-01-26T09:49:03.666Z,3540
2019-01-26T09:50:05.079Z,3568
2019-01-26T09:51:06.049Z,3560
2019-01-26T09:52:07.293Z,3568
2019-01-26T09:53:08.561Z,3508
2019-01-26T09:54:08.253Z,3468
2019-01-26T09:55:08.664Z,3440
2019-01-26T09:56:15.420Z,3428
2019-01-26T09:56:24.646Z,3428
2019-01-26T09:57:21.838Z,3424
2019-01-26T09:58:22.252Z,3428
2019-01-26T09:59:22.956Z,3444
2019-01-26T10:00:23.650Z,3468
2019-01-26T10:01:24.622Z,3532
2019-01-26T10:02:25.872Z,3624
2019-01-26T10:03:26.289Z,3744
2019-01-26T10:04:26.708Z,3844
2019-01-26T10:05:29.362Z,3860
2019-01-26T10:06:28.081Z,3824
2019-01-26T10:07:28.347Z,3808
2019-01-26T10:08:29.485Z,3848
2019-01-26T10:09:30.619Z,3896
2019-01-26T10:10:31.308Z,3928
2019-01-26T10:11:31.998Z,3900
2019-01-26T10:12:32.685Z,3836
2019-01-26T10:13:33.655Z,3800
2019-01-26T10:14:33.816Z,3816
2019-01-26T10:15:34.227Z,3880
2019-01-26T10:16:34.654Z,3932
2019-01-26T10:17:35.258Z,4060
2019-01-26T10:18:36.397Z,4196
2019-01-26T10:19:37.361Z,4308
2019-01-26T10:20:38.887Z,4380
2019-01-26T10:21:39.019Z,4408
2019-01-26T10:22:40.158Z,4432
2019-01-26T10:23:40.881Z,4456
2019-01-26T10:24:41.043Z,4440
2019-01-26T10:25:54.215Z,4436
2019-01-26T10:26:54.475Z,4432
2019-01-26T10:27:55.186Z,4408
2019-01-26T10:28:56.442Z,4432
2019-01-26T10:29:58.118Z,4480
2019-01-26T10:30:59.025Z,4560
2019-01-26T10:31:59.993Z,4704
2019-01-26T10:33:00.405Z,4952
2019-01-26T10:34:00.540Z,5244
2019-01-26T10:35:01.952Z,5564
2019-01-26T10:36:02.921Z,5852
2019-01-26T10:37:03.369Z,6084
2019-01-26T10:38:03.783Z,6244
2019-01-26T10:39:03.927Z,6376
2019-01-26T10:40:05.619Z,6464
2019-01-26T10:41:06.311Z,6576
2019-01-26T10:42:07.277Z,6652
2019-01-26T10:43:07.965Z,6660
2019-01-26T10:44:08.655Z,6640
2019-01-26T10:45:09.628Z,6656
2019-01-26T10:46:09.318Z,6732
2019-01-26T10:47:11.004Z,6808
2019-01-26T10:48:11.143Z,6880
2019-01-26T10:49:12.836Z,6904
2019-01-26T10:50:13.252Z,6876
2019-01-26T10:51:13.960Z,6792
2019-01-26T10:52:14.945Z,6620
2019-01-26T10:53:15.471Z,6564
2019-01-26T10:54:15.891Z,6432
2019-01-26T10:55:16.591Z,6400
2019-01-26T10:56:17.841Z,6232
2019-01-26T10:57:18.398Z,6000
2019-01-26T10:58:18.532Z,5936
2019-01-26T10:59:20.252Z,5844
2019-01-26T11:00:20.665Z,5816
2019-01-26T11:01:22.079Z,5880
2019-01-26T11:02:22.773Z,5900
2019-01-26T11:03:23.186Z,5888
2019-01-26T11:04:24.324Z,5828
2019-01-26T11:05:25.745Z,5848
2019-01-26T11:06:25.879Z,5868
2019-01-26T11:07:26.706Z,5824
2019-01-26T11:08:26.906Z,5728
2019-01-26T11:09:27.609Z,5628
2019-01-26T11:10:27.835Z,5736
2019-01-26T11:11:28.248Z,5796
2019-01-26T11:12:28.942Z,5764
2019-01-26T11:13:29.925Z,5876
2019-01-26T11:14:30.618Z,5848
2019-01-26T11:15:31.308Z,5888
2019-01-26T11:16:32.567Z,6172
2019-01-26T11:17:33.386Z,6568
2019-01-26T11:18:34.115Z,6872
2019-01-26T11:19:34.804Z,7172
2019-01-26T11:20:35.495Z,7432
2019-01-26T11:21:35.911Z,7592
2019-01-26T11:22:36.323Z,7624
2019-01-26T11:23:36.738Z,7548
2019-01-26T11:24:37.871Z,7488
2019-01-26T11:25:39.290Z,7436
2019-01-26T11:26:39.980Z,7392
2019-01-26T11:27:41.111Z,7568
2019-01-26T11:28:41.241Z,7848
2019-01-26T11:29:42.669Z,7748
2019-01-26T11:30:43.084Z,8776
2019-01-26T11:31:44.332Z,9132
2019-01-26T11:32:44.765Z,9744
2019-01-26T11:33:47.485Z,9472
2019-01-26T11:34:47.174Z,10360
2019-01-26T11:35:48.153Z,9208
2019-01-26T11:36:48.841Z,8196
2019-01-26T11:37:49.139Z,7688
2019-01-26T11:38:50.390Z,7112
2019-01-26T11:39:50.640Z,6964
2019-01-26T11:40:51.057Z,6548
2019-01-26T11:41:51.751Z,6440
2019-01-26T11:42:51.891Z,6192
2019-01-26T11:43:53.139Z,6040
2019-01-26T11:44:53.836Z,5696
2019-01-26T11:45:54.574Z,5300
2019-01-26T11:46:55.831Z,5252
2019-01-26T11:47:56.095Z,5584
2019-01-26T11:48:57.346Z,5628
2019-01-26T11:49:57.760Z,5900
2019-01-26T11:50:58.895Z,5968
2019-01-26T11:52:00.315Z,6196
2019-01-26T11:53:01.288Z,6992
2019-01-26T11:54:01.698Z,7180
2019-01-26T11:55:03.002Z,7136
2019-01-26T11:56:03.491Z,7260
2019-01-26T11:57:03.627Z,7564
2019-01-26T11:58:04.476Z,7508
2019-01-26T11:59:04.612Z,7544
2019-01-26T12:00:05.345Z,7584
2019-01-26T12:01:05.478Z,7652
2019-01-26T12:02:06.174Z,7584
2019-01-26T12:03:06.589Z,7628
2019-01-26T12:04:07.724Z,7920
2019-01-26T12:05:08.415Z,8404
2019-01-26T12:06:08.828Z,8364
2019-01-26T12:07:09.521Z,8776
2019-01-26T12:08:09.909Z,9364
2019-01-26T12:09:10.603Z,9476
2019-01-26T12:10:11.021Z,9112
2019-01-26T12:11:14.225Z,8900
2019-01-26T12:12:13.924Z,8852
2019-01-26T12:13:14.645Z,8728
2019-01-26T12:14:15.787Z,8788
2019-01-26T12:15:16.757Z,8580
2019-01-26T12:16:17.169Z,8128
2019-01-26T12:17:17.589Z,7824
2019-01-26T12:18:18.404Z,7484
2019-01-26T12:19:24.323Z,7336
2019-01-26T12:19:31.150Z,7332
2019-01-26T12:20:31.612Z,7300
2019-01-26T12:21:32.029Z,7220
2019-01-26T12:22:32.718Z,7252
2019-01-26T12:23:36.366Z,7540
2019-01-26T12:24:39.147Z,7864
2019-01-26T12:25:39.149Z,7976
2019-01-26T12:26:39.507Z,8152
2019-01-26T12:27:39.925Z,8064
2019-01-26T12:28:40.340Z,7568
2019-01-26T12:29:41.474Z,7104
2019-01-26T12:30:42.598Z,6908
2019-01-26T12:31:43.291Z,6788
2019-01-26T12:32:43.709Z,6740
2019-01-26T12:33:44.398Z,6728
2019-01-26T12:34:50.473Z,6904
2019-01-26T12:35:01.838Z,6920
2019-01-26T12:35:14.159Z,6932
2019-01-26T12:35:26.533Z,6940
2019-01-26T12:35:36.651Z,6948
2019-01-26T12:35:49.996Z,7020
2019-01-26T12:36:02.059Z,7068
2019-01-26T12:36:14.886Z,7112
2019-01-26T12:36:27.345Z,7136
2019-01-26T12:36:38.602Z,7124
2019-01-26T12:36:52.049Z,7104
2019-01-26T12:37:04.442Z,7092
2019-01-26T12:37:14.150Z,7064
2019-01-26T12:37:25.266Z,7040
2019-01-26T12:38:23.495Z,6868
2019-01-26T12:39:25.017Z,6700
2019-01-26T12:40:25.988Z,6976
2019-01-26T12:41:26.694Z,7380
2019-01-26T12:42:28.104Z,7448
2019-01-26T12:43:28.801Z,6844
2019-01-26T12:44:30.055Z,5864
2019-01-26T12:45:30.857Z,5352
2019-01-26T12:46:31.827Z,5184
2019-01-26T12:47:31.960Z,4996
2019-01-26T12:48:33.060Z,4868
2019-01-26T12:49:33.480Z,4908
2019-01-26T12:50:33.895Z,4956
2019-01-26T12:51:34.306Z,4776
2019-01-26T12:52:34.996Z,4668
2019-01-26T12:53:36.714Z,4648
2019-01-26T12:54:37.408Z,4668
2019-01-26T12:55:39.711Z,4760
2019-01-26T12:56:39.400Z,4828
2019-01-26T12:57:41.073Z,5024
2019-01-26T12:58:40.799Z,5060
2019-01-26T12:59:41.211Z,5072
2019-01-26T13:00:42.345Z,4988
2019-01-26T13:01:43.363Z,5116
2019-01-26T13:02:43.775Z,5364
2019-01-26T13:03:44.749Z,5584
2019-01-26T13:04:46.161Z,5712
2019-01-26T13:05:46.572Z,5892
2019-01-26T13:06:47.546Z,5948
2019-01-26T13:07:47.681Z,5760
2019-01-26T13:08:48.502Z,5280
2019-01-26T13:09:48.949Z,4908
2019-01-26T13:10:50.361Z,4784
2019-01-26T13:11:51.369Z,4864
2019-01-26T13:12:51.828Z,4848
2019-01-26T13:13:54.218Z,5076
2019-01-26T13:14:54.632Z,5128
2019-01-26T13:15:55.049Z,4816
2019-01-26T13:16:55.465Z,4452
2019-01-26T13:17:56.713Z,4216
2019-01-26T13:18:57.343Z,4292
2019-01-26T13:19:57.035Z,4460
2019-01-26T13:20:58.449Z,4512
2019-01-26T13:21:59.170Z,4604
2019-01-26T13:23:05.924Z,4308
2019-01-26T13:23:15.620Z,4252
2019-01-26T13:23:24.226Z,4212
2019-01-26T13:24:26.305Z,4064
2019-01-26T13:25:25.367Z,4020
2019-01-26T13:26:25.790Z,4152
2019-01-26T13:27:27.663Z,4156
2019-01-26T13:28:29.360Z,4324
2019-01-26T13:29:29.051Z,4388
2019-01-26T13:30:29.743Z,4124
2019-01-26T13:31:30.159Z,3920
2019-01-26T13:32:30.575Z,3752
2019-01-26T13:33:31.709Z,3760
2019-01-26T13:34:32.392Z,3836
2019-01-26T13:35:33.084Z,3972
2019-01-26T13:36:36.586Z,4136
2019-01-26T13:37:35.003Z,4428
2019-01-26T13:38:40.236Z,4916
2019-01-26T13:39:37.652Z,5292
2019-01-26T13:40:39.349Z,5584
2019-01-26T13:41:39.495Z,5804
2019-01-26T13:42:40.477Z,5964
2019-01-26T13:43:41.175Z,5864
2019-01-26T13:44:42.306Z,5536
2019-01-26T13:45:42.999Z,5204
2019-01-26T13:46:43.685Z,4912
2019-01-26T13:47:44.380Z,4696
2019-01-26T13:48:45.164Z,4644
2019-01-26T13:49:46.216Z,4580